RCSS/TSA METAR and TAF weather

Enter ICAO airport designator
Station Type Date Time Source
RCSS METAR 2019/04/25 17:00 UTC NOAA

RCSS 251700Z 09006KT 9999 FEW012 BKN018 BKN060 26/23 Q1010 NOSIG RMK A2985


Station Type Date Time Source
RCSS Decoded METAR 2019/04/25 17:00 UTC NOAA

Sungshan / Taipei, Taiwan (RCSS) 25-04N 121-33E
Apr 25, 2019 - 01:00 PM EDT / 2019.04.25 1700 UTC
Wind: from the E (090 degrees) at 7 MPH (6 KT):0
Visibility: greater than 7 mile(s):0
Sky conditions: mostly cloudy
Temperature: 78 F (26 C)
Dew Point: 73 F (23 C)
Relative Humidity: 83%
Pressure (altimeter): 29.83 in. Hg (1010 hPa)
ob: RCSS 251700Z 09006KT 9999 FEW012 BKN018 BKN060 26/23 Q1010 NOSIG RMK A2985
cycle: 17

Station Type Date Time Source
RCSS TAF 2019/04/25 18:03 UTC NOAA

TAF RCSS 251700Z 2518/2618 09005KT 9999 FEW015 BKN032
TEMPO 2518/2522 5000 RA FEW010 BKN022 BKN040
TEMPO 2609/2613 10012KT 4000 SHRA FEW008 FEW015CB BKN018 BKN040

Example: see airport list